createdAt,value
2018-08-12T00:00:28.070Z,2.70
2018-08-12T00:02:57.907Z,2.83
2018-08-12T00:05:26.856Z,3.17
2018-08-12T00:07:56.251Z,2.43
2018-08-12T00:10:26.239Z,3.00
2018-08-12T00:12:54.957Z,3.53
2018-08-12T00:15:24.261Z,2.97
2018-08-12T00:17:53.075Z,3.30
2018-08-12T00:20:23.072Z,2.90
2018-08-12T00:22:52.111Z,3.07
2018-08-12T00:25:23.310Z,3.73
2018-08-12T00:27:52.172Z,3.40
2018-08-12T00:30:21.104Z,3.30
2018-08-12T00:32:49.813Z,3.20
2018-08-12T00:35:19.523Z,3.50
2018-08-12T00:37:48.203Z,3.13
2018-08-12T00:40:17.915Z,3.80
2018-08-12T00:42:47.618Z,2.87
2018-08-12T00:45:18.784Z,2.97
2018-08-12T00:47:48.120Z,3.10
2018-08-12T00:50:17.635Z,2.90
2018-08-12T00:52:46.475Z,3.13
2018-08-12T00:55:17.690Z,3.90
2018-08-12T00:57:47.275Z,3.53
2018-08-12T01:00:18.252Z,3.30
2018-08-12T01:02:46.939Z,3.53
2018-08-12T01:05:16.961Z,3.40
2018-08-12T01:07:46.753Z,3.90
2018-08-12T01:10:15.936Z,3.27
2018-08-12T01:12:44.915Z,3.50
2018-08-12T01:15:16.157Z,3.60
2018-08-12T01:17:45.474Z,3.20
2018-08-12T01:20:21.001Z,3.67
2018-08-12T01:22:49.944Z,3.30
2018-08-12T01:25:18.597Z,3.47
2018-08-12T01:27:47.299Z,3.10
2018-08-12T01:30:18.939Z,4.00
2018-08-12T01:32:48.219Z,2.83
2018-08-12T01:35:17.431Z,3.00
2018-08-12T01:37:46.765Z,3.10
2018-08-12T01:40:16.504Z,2.70
2018-08-12T01:42:45.646Z,3.20
2018-08-12T01:45:16.850Z,3.17
2018-08-12T01:47:45.627Z,3.47
2018-08-12T01:50:15.889Z,3.60
2018-08-12T01:52:45.035Z,3.90
2018-08-12T01:55:13.724Z,3.30
2018-08-12T01:57:42.431Z,3.20
2018-08-12T02:00:17.040Z,3.60
2018-08-12T02:02:46.497Z,3.30
2018-08-12T02:05:15.380Z,3.30
2018-08-12T02:07:44.552Z,3.10
2018-08-12T02:10:13.261Z,3.10
2018-08-12T02:12:41.947Z,3.73
2018-08-12T02:15:11.903Z,4.60
2018-08-12T02:17:42.112Z,3.30
2018-08-12T02:20:12.163Z,3.17
2018-08-12T02:22:42.102Z,3.47
2018-08-12T02:25:11.445Z,3.33
2018-08-12T02:27:40.133Z,3.77
2018-08-12T02:30:10.780Z,4.20
2018-08-12T02:32:48.783Z,3.93
2018-08-12T02:35:17.465Z,3.67
2018-08-12T02:37:46.364Z,3.20
2018-08-12T02:40:14.995Z,3.60
2018-08-12T02:42:43.706Z,4.10
2018-08-12T02:45:15.153Z,4.80
2018-08-12T02:47:44.207Z,3.67
2018-08-12T02:50:12.859Z,3.67
2018-08-12T02:52:41.599Z,3.73
2018-08-12T02:55:11.814Z,3.40
2018-08-12T02:57:41.623Z,4.00
2018-08-12T03:00:12.495Z,3.25
2018-08-12T03:02:41.156Z,4.20
2018-08-12T03:05:09.891Z,4.17
2018-08-12T03:07:38.797Z,3.60
2018-08-12T03:10:08.191Z,4.20
2018-08-12T03:12:37.150Z,3.77
2018-08-12T03:15:07.895Z,3.83
2018-08-12T03:17:36.966Z,3.60
2018-08-12T03:20:07.155Z,3.42
2018-08-12T03:22:36.052Z,3.27
2018-08-12T03:25:05.580Z,3.60
2018-08-12T03:27:53.362Z,4.75
2018-08-12T03:30:35.843Z,3.30
2018-08-12T03:33:17.993Z,3.85
2018-08-12T03:35:47.027Z,3.37
2018-08-12T03:38:15.717Z,3.42
2018-08-12T03:40:44.467Z,4.22
2018-08-12T03:43:13.084Z,4.03
2018-08-12T03:45:41.784Z,3.75
2018-08-12T03:48:10.471Z,3.55
2018-08-12T03:51:03.675Z,4.28
2018-08-12T03:53:54.162Z,3.47
2018-08-12T03:56:23.628Z,3.58
2018-08-12T03:58:52.227Z,3.87
2018-08-12T04:01:20.872Z,3.67
2018-08-12T04:03:49.484Z,3.58
2018-08-12T04:06:18.375Z,4.70
2018-08-12T04:08:47.011Z,3.85
2018-08-12T04:11:16.162Z,3.52
2018-08-12T04:13:44.867Z,3.58
2018-08-12T04:16:13.578Z,3.58
2018-08-12T04:18:42.308Z,3.08
2018-08-12T04:21:11.368Z,4.05
2018-08-12T04:23:40.503Z,3.80
2018-08-12T04:26:09.508Z,3.42
2018-08-12T04:28:38.258Z,4.17
2018-08-12T04:31:06.932Z,4.03
2018-08-12T04:33:35.555Z,3.70
2018-08-12T04:36:04.232Z,4.47
2018-08-12T04:38:32.858Z,3.80
2018-08-12T04:41:01.559Z,3.72
2018-08-12T04:43:30.231Z,4.03
2018-08-12T04:45:58.969Z,4.70
2018-08-12T04:48:27.691Z,3.27
2018-08-12T04:50:56.320Z,3.50
2018-08-12T04:53:24.895Z,3.35
2018-08-12T04:55:53.634Z,3.92
2018-08-12T04:58:22.387Z,3.65
2018-08-12T05:00:51.130Z,3.65
2018-08-12T05:03:19.999Z,4.65
2018-08-12T05:05:48.812Z,3.83
2018-08-12T05:08:17.429Z,3.72
2018-08-12T05:10:46.344Z,3.37
2018-08-12T05:13:15.066Z,3.35
2018-08-12T05:15:43.800Z,3.85
2018-08-12T05:18:12.730Z,4.20
2018-08-12T05:20:41.619Z,4.20
2018-08-12T05:23:10.367Z,3.52
2018-08-12T05:25:39.307Z,5.20
2018-08-12T05:28:08.072Z,4.10
2018-08-12T05:30:36.632Z,3.60
2018-08-12T05:33:05.667Z,3.87
2018-08-12T05:35:34.339Z,4.53
2018-08-12T05:38:03.218Z,3.47
2018-08-12T05:40:32.029Z,2.83
2018-08-12T05:43:00.686Z,3.53
2018-08-12T05:45:29.350Z,3.00
2018-08-12T05:47:58.244Z,3.30
2018-08-12T05:50:26.931Z,3.17
2018-08-12T05:52:55.615Z,3.90
2018-08-12T05:55:24.599Z,4.10
2018-08-12T05:57:53.774Z,3.40
2018-08-12T06:00:22.398Z,3.40
2018-08-12T06:02:51.306Z,3.53
2018-08-12T06:05:20.039Z,3.90
2018-08-12T06:07:50.165Z,3.30
2018-08-12T06:10:19.888Z,4.00
2018-08-12T06:12:48.792Z,3.43
2018-08-12T06:15:19.195Z,3.60
2018-08-12T06:17:47.924Z,3.40
2018-08-12T06:20:16.707Z,3.17
2018-08-12T06:22:46.047Z,2.60
2018-08-12T06:25:15.933Z,3.50
2018-08-12T06:27:44.607Z,3.57
2018-08-12T06:30:18.021Z,3.33
2018-08-12T06:32:47.036Z,4.07
2018-08-12T06:35:15.684Z,3.70
2018-08-12T06:37:44.706Z,4.33
2018-08-12T06:40:14.915Z,3.40
2018-08-12T06:42:44.875Z,2.80
2018-08-12T06:45:14.865Z,3.00
2018-08-12T06:47:44.547Z,2.47
2018-08-12T06:50:13.376Z,3.00
2018-08-12T06:52:42.373Z,3.30
2018-08-12T06:55:13.292Z,3.13
2018-08-12T06:57:42.803Z,3.00
2018-08-12T07:00:13.215Z,1.80
2018-08-12T07:02:42.005Z,2.80
2018-08-12T07:05:11.471Z,3.13
2018-08-12T07:07:40.228Z,2.20
2018-08-12T07:10:15.721Z,2.70
2018-08-12T07:12:48.328Z,2.40
2018-08-12T07:15:19.697Z,2.77
2018-08-12T07:17:49.941Z,2.20
2018-08-12T07:20:21.139Z,2.50
2018-08-12T07:22:53.344Z,2.43
2018-08-12T07:25:23.030Z,2.23
2018-08-12T07:27:53.326Z,2.30
2018-08-12T07:30:27.527Z,2.10
2018-08-12T07:33:01.799Z,1.70
2018-08-12T07:35:34.913Z,1.80
2018-08-12T07:38:06.066Z,1.80
2018-08-12T07:40:37.092Z,1.90
2018-08-12T07:43:08.486Z,2.33
2018-08-12T07:45:39.012Z,1.83
2018-08-12T07:48:11.891Z,2.00
2018-08-12T07:50:41.716Z,1.83
2018-08-12T07:53:15.032Z,1.90
2018-08-12T07:55:48.028Z,2.13
2018-08-12T07:58:18.444Z,2.10
2018-08-12T08:00:49.845Z,2.30
2018-08-12T08:03:23.343Z,1.63
2018-08-12T08:05:53.995Z,1.30
2018-08-12T08:08:26.844Z,1.50
2018-08-12T08:11:00.399Z,1.67
2018-08-12T08:13:29.324Z,2.10
2018-08-12T08:15:57.925Z,1.87
2018-08-12T08:18:26.559Z,1.70
2018-08-12T08:20:55.229Z,2.00
2018-08-12T08:23:23.903Z,1.30
2018-08-12T08:25:52.651Z,1.80
2018-08-12T08:28:23.574Z,2.00
2018-08-12T08:30:53.267Z,1.70
2018-08-12T08:33:25.203Z,1.77
2018-08-12T08:35:58.239Z,1.93
2018-08-12T08:38:29.417Z,1.90
2018-08-12T08:41:01.767Z,1.53
2018-08-12T08:43:33.188Z,1.70
2018-08-12T08:46:06.614Z,1.77
2018-08-12T08:48:38.903Z,1.63
2018-08-12T08:51:07.629Z,1.73
2018-08-12T08:53:37.056Z,1.63
2018-08-12T08:56:05.895Z,1.83
2018-08-12T08:58:34.467Z,1.83
2018-08-12T09:01:03.928Z,1.63
2018-08-12T09:03:32.652Z,1.93
2018-08-12T09:06:01.536Z,1.60
2018-08-12T09:08:30.323Z,1.40
2018-08-12T09:10:58.877Z,1.90
2018-08-12T09:13:28.003Z,1.70
2018-08-12T09:15:56.799Z,1.20
2018-08-12T09:18:25.632Z,1.50
2018-08-12T09:21:01.394Z,1.37
2018-08-12T09:23:43.701Z,1.53
2018-08-12T09:26:14.914Z,1.40
2018-08-12T09:28:47.219Z,1.80
2018-08-12T09:31:16.788Z,1.40
2018-08-12T09:33:57.405Z,1.20
2018-08-12T09:36:35.658Z,1.20
2018-08-12T09:39:07.838Z,1.30
2018-08-12T09:41:47.170Z,1.30
2018-08-12T09:44:17.119Z,1.70
2018-08-12T09:46:46.348Z,1.40
2018-08-12T09:49:20.396Z,1.60
2018-08-12T09:51:51.965Z,1.10
2018-08-12T09:54:21.566Z,1.30
2018-08-12T09:56:51.173Z,1.33
2018-08-12T09:59:20.234Z,1.27
2018-08-12T10:01:56.582Z,1.33
2018-08-12T10:04:25.903Z,1.30
2018-08-12T10:06:54.563Z,1.27
2018-08-12T10:09:23.204Z,1.33
2018-08-12T10:11:51.872Z,1.20
2018-08-12T10:14:20.555Z,1.10
2018-08-12T10:16:49.235Z,1.30
2018-08-12T10:19:17.991Z,1.03
2018-08-12T10:21:46.752Z,1.20
2018-08-12T10:24:15.400Z,1.20
2018-08-12T10:26:44.111Z,1.00
2018-08-12T10:29:13.057Z,1.23
2018-08-12T10:31:41.588Z,0.90
2018-08-12T10:34:10.231Z,2.10
2018-08-12T10:36:39.063Z,0.87
2018-08-12T10:39:08.789Z,1.07
2018-08-12T10:41:37.412Z,0.80
2018-08-12T10:44:06.403Z,1.47
2018-08-12T10:46:34.960Z,0.80
2018-08-12T10:49:03.524Z,1.20
2018-08-12T10:51:32.429Z,1.13
2018-08-12T10:54:01.427Z,0.83
2018-08-12T10:56:30.133Z,1.10
2018-08-12T10:58:59.192Z,1.00
2018-08-12T11:01:40.155Z,1.17
2018-08-12T11:04:29.359Z,1.20
2018-08-12T11:07:04.852Z,0.83
2018-08-12T11:09:44.636Z,0.75
2018-08-12T11:12:35.448Z,0.90
2018-08-12T11:15:11.577Z,0.85
2018-08-12T11:17:51.347Z,1.05
2018-08-12T11:20:41.582Z,0.80
2018-08-12T11:23:24.232Z,0.90
2018-08-12T11:26:00.400Z,1.20
2018-08-12T11:28:41.143Z,1.20
2018-08-12T11:31:28.707Z,1.60
2018-08-12T11:34:11.392Z,0.90
2018-08-12T11:36:40.725Z,0.95
2018-08-12T11:39:22.513Z,0.90
2018-08-12T11:42:03.267Z,1.30
2018-08-12T11:44:32.120Z,1.15
2018-08-12T11:47:00.964Z,1.20
2018-08-12T11:49:29.751Z,1.20
2018-08-12T11:51:58.437Z,1.10
2018-08-12T11:54:27.405Z,1.10
2018-08-12T11:56:56.210Z,1.23
2018-08-12T11:59:24.819Z,1.47
2018-08-12T12:01:53.901Z,1.37
2018-08-12T12:04:22.816Z,1.20
2018-08-12T12:06:51.403Z,1.17
2018-08-12T12:09:20.611Z,1.30
2018-08-12T12:11:49.158Z,1.23
2018-08-12T12:14:17.742Z,1.40
2018-08-12T12:16:46.703Z,1.53
2018-08-12T12:19:15.579Z,1.40
2018-08-12T12:21:44.526Z,1.57
2018-08-12T12:24:13.233Z,1.10
2018-08-12T12:26:41.953Z,1.32
2018-08-12T12:29:10.722Z,1.10
2018-08-12T12:31:39.639Z,0.88
2018-08-12T12:34:08.936Z,1.32
2018-08-12T12:36:37.541Z,1.30
2018-08-12T12:39:08.824Z,1.02
2018-08-12T12:41:37.409Z,1.30
2018-08-12T12:44:06.607Z,1.10
2018-08-12T12:46:35.974Z,1.20
2018-08-12T12:49:04.603Z,1.20
2018-08-12T12:51:33.328Z,1.47
2018-08-12T12:54:02.350Z,0.85
2018-08-12T12:56:31.129Z,1.05
2018-08-12T12:58:59.989Z,0.93
2018-08-12T13:01:28.574Z,1.15
2018-08-12T13:03:57.140Z,1.17
2018-08-12T13:06:25.727Z,1.40
2018-08-12T13:08:54.536Z,0.90
2018-08-12T13:11:23.311Z,0.75
2018-08-12T13:13:52.028Z,0.90
2018-08-12T13:16:20.912Z,1.07
2018-08-12T13:18:49.696Z,1.00
2018-08-12T13:21:18.295Z,1.00
2018-08-12T13:23:47.110Z,1.10
2018-08-12T13:26:15.819Z,2.10
2018-08-12T13:28:44.759Z,1.43
2018-08-12T13:31:13.725Z,1.60
2018-08-12T13:33:42.399Z,1.17
2018-08-12T13:36:11.158Z,1.07
2018-08-12T13:38:40.030Z,1.27
2018-08-12T13:41:08.747Z,1.30
2018-08-12T13:43:37.727Z,1.10
2018-08-12T13:46:06.807Z,1.40
2018-08-12T13:48:35.343Z,1.20
2018-08-12T13:51:04.120Z,0.83
2018-08-12T13:53:33.137Z,1.00
2018-08-12T13:56:01.948Z,1.00
2018-08-12T13:58:30.540Z,1.10
2018-08-12T14:01:00.386Z,1.10
2018-08-12T14:03:30.070Z,0.93
2018-08-12T14:05:59.010Z,0.90
2018-08-12T14:08:28.178Z,1.70
2018-08-12T14:11:14.046Z,1.00
2018-08-12T14:14:02.286Z,1.00
2018-08-12T14:16:48.455Z,4.40
2018-08-12T14:19:37.999Z,1.42
2018-08-12T14:22:21.878Z,0.82
2018-08-12T14:25:09.355Z,1.00
2018-08-12T14:27:54.452Z,1.13
2018-08-12T14:30:38.262Z,1.20
2018-08-12T14:33:15.118Z,1.07
2018-08-12T14:35:50.442Z,1.10
2018-08-12T14:38:30.348Z,1.07
2018-08-12T14:40:59.810Z,1.12
2018-08-12T14:43:28.661Z,1.77
2018-08-12T14:45:57.225Z,0.93
2018-08-12T14:48:25.821Z,1.10
2018-08-12T14:50:54.386Z,1.30
2018-08-12T14:53:23.152Z,1.07
2018-08-12T14:55:51.879Z,1.60
2018-08-12T14:58:20.779Z,1.33
2018-08-12T15:00:49.571Z,0.90
2018-08-12T15:03:18.455Z,1.60
2018-08-12T15:05:47.165Z,1.00
2018-08-12T15:08:16.063Z,1.00
2018-08-12T15:10:44.834Z,1.20
2018-08-12T15:13:13.465Z,1.30
2018-08-12T15:15:42.244Z,0.90
2018-08-12T15:18:11.091Z,1.00
2018-08-12T15:20:39.755Z,1.30
2018-08-12T15:23:08.422Z,1.00
2018-08-12T15:25:37.127Z,1.20
2018-08-12T15:28:05.972Z,1.43
2018-08-12T15:30:34.766Z,1.20
2018-08-12T15:33:03.508Z,1.57
2018-08-12T15:35:32.160Z,1.20
2018-08-12T15:38:00.948Z,1.30
2018-08-12T15:40:30.033Z,1.63
2018-08-12T15:42:58.711Z,1.90
2018-08-12T15:45:27.562Z,1.47
2018-08-12T15:47:56.331Z,2.80
2018-08-12T15:50:24.984Z,1.47
2018-08-12T15:52:53.631Z,1.30
2018-08-12T15:55:22.601Z,1.37
2018-08-12T15:57:51.310Z,1.10
2018-08-12T16:00:21.366Z,1.23
2018-08-12T16:02:50.216Z,1.43
2018-08-12T16:05:19.978Z,1.33
2018-08-12T16:07:49.828Z,1.20
2018-08-12T16:10:22.429Z,1.70
2018-08-12T16:12:52.619Z,1.10
2018-08-12T16:15:21.828Z,1.37
2018-08-12T16:17:50.576Z,1.60
2018-08-12T16:20:19.633Z,1.30
2018-08-12T16:22:48.370Z,1.50
2018-08-12T16:25:18.596Z,1.97
2018-08-12T16:27:47.268Z,1.27
2018-08-12T16:30:16.959Z,1.30
2018-08-12T16:32:45.816Z,1.80
2018-08-12T16:35:15.586Z,1.80
2018-08-12T16:37:44.999Z,1.73
2018-08-12T16:40:16.140Z,1.90
2018-08-12T16:42:45.475Z,1.67
2018-08-12T16:45:29.665Z,1.80
2018-08-12T16:48:19.083Z,1.67
2018-08-12T16:51:06.022Z,1.73
2018-08-12T16:53:49.326Z,1.60
2018-08-12T16:56:32.870Z,1.60
2018-08-12T16:59:20.424Z,2.07
2018-08-12T17:02:05.388Z,1.70
2018-08-12T17:04:50.069Z,1.87
2018-08-12T17:07:20.467Z,2.33
2018-08-12T17:09:49.440Z,1.80
2018-08-12T17:12:17.996Z,1.73
2018-08-12T17:14:46.666Z,1.40
2018-08-12T17:17:15.313Z,1.87
2018-08-12T17:19:43.908Z,2.10
2018-08-12T17:22:16.104Z,1.67
2018-08-12T17:24:44.769Z,2.10
2018-08-12T17:27:14.382Z,2.03
2018-08-12T17:29:43.107Z,2.57
2018-08-12T17:32:11.851Z,2.40
2018-08-12T17:34:40.455Z,1.70
2018-08-12T17:37:09.163Z,1.90
2018-08-12T17:39:37.825Z,2.00
2018-08-12T17:42:06.483Z,2.83
2018-08-12T17:44:35.227Z,2.30
2018-08-12T17:47:03.919Z,2.00
2018-08-12T17:49:32.583Z,2.00
2018-08-12T17:52:01.324Z,2.80
2018-08-12T17:54:29.925Z,2.80
2018-08-12T17:56:58.504Z,2.67
2018-08-12T17:59:27.367Z,4.40
2018-08-12T18:01:56.109Z,3.10
2018-08-12T18:04:24.920Z,2.17
2018-08-12T18:06:53.680Z,3.07
2018-08-12T18:09:22.439Z,2.70
2018-08-12T18:11:51.028Z,4.97
2018-08-12T18:14:19.651Z,3.40
2018-08-12T18:16:48.315Z,3.93
2018-08-12T18:19:18.179Z,3.40
2018-08-12T18:21:47.272Z,2.70
2018-08-12T18:24:17.118Z,2.00
2018-08-12T18:26:46.473Z,2.20
2018-08-12T18:29:15.563Z,2.60
2018-08-12T18:31:44.372Z,13.80
2018-08-12T18:34:12.928Z,3.67
2018-08-12T18:36:41.569Z,3.67
2018-08-12T18:39:11.959Z,3.60
2018-08-12T18:41:40.935Z,3.10
2018-08-12T18:44:10.217Z,2.80
2018-08-12T18:46:39.047Z,3.10
2018-08-12T18:49:07.689Z,2.47
2018-08-12T18:51:36.412Z,2.70
2018-08-12T18:54:05.288Z,2.27
2018-08-12T18:56:33.936Z,2.83
2018-08-12T18:59:02.627Z,2.67
2018-08-12T19:01:31.264Z,2.57
2018-08-12T19:04:00.035Z,2.80
2018-08-12T19:06:28.827Z,2.70
2018-08-12T19:08:57.992Z,2.23
2018-08-12T19:11:26.832Z,2.30
2018-08-12T19:13:55.493Z,2.70
2018-08-12T19:16:24.151Z,1.80
2018-08-12T19:18:52.972Z,2.20
2018-08-12T19:21:21.671Z,2.37
2018-08-12T19:23:50.399Z,2.77
2018-08-12T19:26:19.155Z,2.20
2018-08-12T19:28:47.855Z,1.90
2018-08-12T19:31:16.589Z,2.00
2018-08-12T19:33:45.252Z,2.07
2018-08-12T19:36:13.819Z,1.80
2018-08-12T19:38:42.659Z,2.07
2018-08-12T19:41:11.486Z,2.13
2018-08-12T19:43:40.283Z,2.10
2018-08-12T19:46:08.931Z,2.50
2018-08-12T19:48:37.691Z,2.10
2018-08-12T19:51:06.792Z,2.93
2018-08-12T19:53:36.097Z,3.40
2018-08-12T19:56:04.871Z,2.87
2018-08-12T19:58:33.880Z,3.10
2018-08-12T20:01:02.779Z,3.77
2018-08-12T20:03:31.492Z,4.30
2018-08-12T20:06:00.107Z,3.50
2018-08-12T20:08:28.710Z,2.63
2018-08-12T20:10:57.254Z,3.47
2018-08-12T20:13:25.968Z,3.70
2018-08-12T20:15:54.888Z,3.13
2018-08-12T20:18:23.545Z,2.80
2018-08-12T20:20:52.119Z,2.90
2018-08-12T20:23:20.842Z,3.07
2018-08-12T20:25:49.555Z,2.50
2018-08-12T20:28:18.196Z,2.80
2018-08-12T20:30:47.107Z,2.60
2018-08-12T20:33:15.819Z,2.80
2018-08-12T20:35:44.435Z,2.80
2018-08-12T20:38:13.372Z,2.47
2018-08-12T20:40:42.168Z,2.43
2018-08-12T20:43:10.803Z,2.70
2018-08-12T20:45:39.860Z,2.40
2018-08-12T20:48:08.725Z,2.70
2018-08-12T20:50:37.479Z,2.60
2018-08-12T20:53:06.410Z,2.80
2018-08-12T20:55:35.016Z,2.90
2018-08-12T20:58:03.694Z,1.93
2018-08-12T21:00:32.563Z,2.63
2018-08-12T21:03:01.258Z,2.67
2018-08-12T21:05:29.907Z,2.63
2018-08-12T21:07:58.825Z,2.90
2018-08-12T21:10:27.562Z,2.50
2018-08-12T21:12:59.863Z,2.47
2018-08-12T21:15:30.351Z,2.53
2018-08-12T21:17:59.207Z,2.57
2018-08-12T21:20:28.075Z,2.93
2018-08-12T21:22:57.367Z,2.63
2018-08-12T21:25:26.958Z,2.50
2018-08-12T21:27:55.847Z,2.90
2018-08-12T21:30:25.176Z,2.40
2018-08-12T21:32:54.377Z,2.30
2018-08-12T21:35:23.241Z,2.27
2018-08-12T21:37:52.491Z,2.20
2018-08-12T21:40:21.170Z,2.50
2018-08-12T21:42:50.263Z,2.00
2018-08-12T21:45:19.784Z,2.33
2018-08-12T21:47:48.393Z,3.03
2018-08-12T21:50:17.366Z,2.93
2018-08-12T21:52:47.032Z,2.90
2018-08-12T21:55:16.181Z,2.90
2018-08-12T21:57:44.915Z,2.73
2018-08-12T22:00:15.476Z,3.40
2018-08-12T22:02:45.503Z,2.80
2018-08-12T22:05:14.195Z,3.17
2018-08-12T22:07:43.331Z,3.23
2018-08-12T22:10:12.636Z,3.70
2018-08-12T22:12:41.563Z,3.30
2018-08-12T22:15:10.570Z,2.80
2018-08-12T22:17:39.464Z,2.93
2018-08-12T22:20:08.040Z,3.13
2018-08-12T22:22:39.331Z,3.70
2018-08-12T22:25:08.220Z,3.87
2018-08-12T22:27:37.058Z,3.10
2018-08-12T22:30:07.952Z,3.83
2018-08-12T22:32:37.047Z,3.00
2018-08-12T22:35:05.996Z,3.53
2018-08-12T22:37:34.667Z,3.50
2018-08-12T22:40:03.423Z,3.40
2018-08-12T22:42:32.864Z,3.27
2018-08-12T22:45:02.120Z,3.50
2018-08-12T22:47:31.052Z,2.93
2018-08-12T22:49:59.707Z,3.13
2018-08-12T22:52:29.379Z,3.33
2018-08-12T22:55:00.097Z,3.40
2018-08-12T22:57:29.806Z,3.17
2018-08-12T22:59:59.227Z,3.33
2018-08-12T23:02:28.528Z,3.23
2018-08-12T23:04:57.563Z,4.00
2018-08-12T23:07:26.740Z,3.70
2018-08-12T23:09:56.375Z,3.20
2018-08-12T23:12:25.782Z,3.60
2018-08-12T23:15:00.033Z,3.60
2018-08-12T23:17:30.697Z,4.03
2018-08-12T23:20:00.261Z,3.60
2018-08-12T23:22:29.762Z,4.20
2018-08-12T23:24:58.839Z,3.90
2018-08-12T23:27:28.456Z,4.10
2018-08-12T23:29:57.864Z,3.77
2018-08-12T23:32:27.263Z,3.87
2018-08-12T23:34:56.859Z,4.10
2018-08-12T23:37:26.200Z,3.80
2018-08-12T23:39:55.581Z,3.70
2018-08-12T23:42:24.466Z,3.20
2018-08-12T23:44:53.212Z,4.00
2018-08-12T23:47:21.989Z,3.30
2018-08-12T23:49:50.888Z,3.90
2018-08-12T23:52:19.683Z,3.90
2018-08-12T23:54:48.360Z,3.83
2018-08-12T23:57:17.193Z,3.93
2018-08-12T23:59:45.803Z,4.07
